Time;durP1;ratioP1;P1;durP2;ratioP2;P2;SDS_P1;SDS_P2;PMS_P1;PMS_P2;Temp;Humidity;BMP_temperature;BMP_pressure;BME280_temperature;BME280_humidity;BME280_pressure;Samples;Min_cycle;Max_cycle;Signal;HPM_P1;HPM_P2
2023/02/21 02:15:17;;;;;;;25.60;16.03;;;;;;;3.26;94.47;100718.75;4972118;28;20073;-69
2023/02/21 02:17:57;;;;;;;21.33;12.80;;;;;;;3.21;95.24;100727.75;4972229;28;20580;-69
2023/02/21 02:20:37;;;;;;;23.10;14.18;;;;;;;3.22;96.36;100721.88;4977699;28;20507;-69
2023/02/21 02:23:17;;;;;;;24.03;13.83;;;;;;;3.20;98.05;100729.44;4991482;28;20073;-72
2023/02/21 02:26:12;;;;;;;18.87;12.27;;;;;;;3.19;98.54;100727.66;4991359;28;20136;-70
2023/02/21 02:29:08;;;;;;;23.07;14.80;;;;;;;3.19;99.60;100714.00;4933411;29;20047;-69
2023/02/21 02:32:02;;;;;;;19.30;12.10;;;;;;;3.07;100.00;100716.59;4933525;29;20040;-69
2023/02/21 02:34:46;;;;;;;17.07;11.77;;;;;;;3.04;100.00;100717.25;4876539;29;20048;-73
2023/02/21 02:37:23;;;;;;;18.87;11.77;;;;;;;2.97;100.00;100709.94;4876895;29;20128;-69
2023/02/21 02:40:22;;;;;;;20.63;11.80;;;;;;;2.95;100.00;100703.84;4876785;29;20089;-69
2023/02/21 02:43:08;;;;;;;19.70;11.37;;;;;;;3.03;100.00;100710.38;4858090;29;20048;-71
2023/02/21 02:45:47;;;;;;;20.47;12.07;;;;;;;2.85;100.00;100678.47;4858056;29;20061;-69
2023/02/21 02:48:20;;;;;;;19.40;11.75;;;;;;;2.92;100.00;100696.84;4858082;29;20057;-69
2023/02/21 02:50:48;;;;;;;16.87;11.17;;;;;;;2.99;100.00;100707.50;4857226;29;20044;-68
2023/02/21 02:53:18;;;;;;;19.57;11.77;;;;;;;2.87;100.00;100707.53;4857830;29;20906;-69
2023/02/21 02:55:51;;;;;;;19.60;11.07;;;;;;;2.97;100.00;100709.94;4857822;29;20522;-69
2023/02/21 02:58:21;;;;;;;19.33;11.33;;;;;;;3.00;100.00;100704.16;4858121;29;20535;-69
2023/02/21 03:01:05;;;;;;;18.40;11.27;;;;;;;3.03;100.00;100705.28;4858177;29;20125;-68
2023/02/21 03:03:31;;;;;;;24.77;11.97;;;;;;;2.99;100.00;100698.19;4857727;29;20029;-67
2023/02/21 03:06:10;;;;;;;17.17;10.20;;;;;;;2.96;100.00;100695.41;4882279;29;20427;-69
2023/02/21 03:08:49;;;;;;;18.65;11.20;;;;;;;2.96;100.00;100692.00;4884546;29;20040;-69
2023/02/21 03:11:19;;;;;;;22.08;11.60;;;;;;;2.80;100.00;100675.59;4908331;29;20046;-71
2023/02/21 03:13:47;;;;;;;;;;;;;;;2.90;100.00;100679.69;4952193;29;20089;-70
2023/02/21 03:16:48;;;;;;;18.33;11.07;;;;;;;2.91;100.00;100678.91;4951964;29;19921;-72
2023/02/21 03:19:21;;;;;;;20.50;12.10;;;;;;;2.79;100.00;100639.78;4980997;28;20048;-69
2023/02/21 03:22:00;;;;;;;17.20;11.40;;;;;;;2.72;100.00;100675.03;5012142;28;20042;-70
2023/02/21 03:24:28;;;;;;;19.52;12.43;;;;;;;2.65;100.00;100665.19;5012570;28;20099;-72
2023/02/21 03:27:04;;;;;;;23.70;13.00;;;;;;;2.61;100.00;100665.75;5012174;28;20112;-68
2023/02/21 03:29:31;;;;;;;18.33;12.07;;;;;;;2.59;100.00;100670.72;5012588;28;20034;-69
2023/02/21 03:34:40;;;;;;;23.13;12.93;;;;;;;2.49;100.00;100675.91;5040420;28;20510;-69
2023/02/21 03:37:07;;;;;;;20.50;12.47;;;;;;;2.43;100.00;100673.84;5052078;28;20057;-73
2023/02/21 03:39:32;;;;;;;20.20;12.10;;;;;;;2.41;100.00;100670.28;5051769;28;20025;-68
2023/02/21 03:41:58;;;;;;;22.80;13.33;;;;;;;2.60;100.00;100681.81;5052020;28;20025;-70
2023/02/21 03:44:23;;;;;;;22.73;13.23;;;;;;;2.57;100.00;100672.28;5051951;28;20415;-72
2023/02/21 03:46:49;;;;;;;23.60;13.33;;;;;;;2.48;100.00;100671.63;5051916;28;20104;-69
2023/02/21 03:49:15;;;;;;;21.93;13.13;;;;;;;2.36;100.00;100646.13;5051909;28;20028;-69
2023/02/21 03:51:40;;;;;;;21.10;13.67;;;;;;;2.49;100.00;100683.56;5051017;28;20036;-69
2023/02/21 03:54:06;;;;;;;22.33;13.23;;;;;;;2.42;100.00;100687.34;5051982;28;20024;-67
2023/02/21 03:56:31;;;;;;;24.67;14.07;;;;;;;2.41;100.00;100700.84;5051538;28;20047;-69
2023/02/21 03:58:56;;;;;;;20.47;14.17;;;;;;;2.26;100.00;100674.25;5051628;28;20399;-70
2023/02/21 04:01:22;;;;;;;27.27;15.40;;;;;;;2.33;100.00;100691.78;5051396;28;20689;-71
2023/02/21 04:03:47;;;;;;;22.00;13.50;;;;;;;2.17;100.00;100664.28;5051527;28;20033;-68
2023/02/21 04:06:13;;;;;;;25.20;14.73;;;;;;;2.11;100.00;100663.84;5051405;28;20047;-70
2023/02/21 04:08:38;;;;;;;20.73;13.33;;;;;;;2.16;100.00;100661.63;5042076;28;20549;-71
2023/02/21 04:11:04;;;;;;;20.40;14.27;;;;;;;2.37;100.00;100703.97;5031483;28;20033;-68
2023/02/21 04:13:30;;;;;;;20.07;13.47;;;;;;;2.34;100.00;100688.44;5031210;28;20025;-68
2023/02/21 04:15:55;;;;;;;26.17;14.67;;;;;;;2.39;100.00;100699.88;5037410;28;20123;-68
2023/02/21 04:18:20;;;;;;;22.23;13.43;;;;;;;2.30;100.00;100686.44;5051308;28;20399;-68
2023/02/21 04:20:47;;;;;;;25.03;14.33;;;;;;;2.20;100.00;100700.16;5047426;28;20425;-69
2023/02/21 04:23:19;;;;;;;23.40;13.57;;;;;;;2.08;100.00;100689.06;5050954;28;20021;-68
2023/02/21 04:25:45;;;;;;;25.27;15.03;;;;;;;2.08;100.00;100692.50;5036436;28;20987;-71
2023/02/21 04:28:10;;;;;;;23.03;13.03;;;;;;;2.13;100.00;100697.03;5030941;28;20506;-70
2023/02/21 04:30:36;;;;;;;20.03;12.97;;;;;;;2.17;100.00;100691.41;5038553;28;20034;-68
2023/02/21 04:33:02;;;;;;;24.07;15.60;;;;;;;2.25;100.00;100695.41;5030673;28;20084;-68
2023/02/21 04:35:28;;;;;;;28.93;16.43;;;;;;;2.08;100.00;100679.78;5030940;28;20053;-71
2023/02/21 04:37:53;;;;;;;27.27;15.40;;;;;;;2.10;100.00;100701.13;5033247;28;20368;-69
2023/02/21 04:40:19;;;;;;;25.87;15.90;;;;;;;1.89;100.00;100652.03;5040891;28;20025;-68
2023/02/21 04:42:45;;;;;;;27.07;16.50;;;;;;;2.05;100.00;100674.44;5042249;28;20025;-68
2023/02/21 04:45:11;;;;;;;28.40;16.17;;;;;;;1.89;100.00;100638.44;5039022;28;20025;-72
2023/02/21 04:47:36;;;;;;;22.33;14.90;;;;;;;2.14;100.00;100678.44;5014802;28;20112;-69
2023/02/21 04:50:03;;;;;;;26.27;16.17;;;;;;;2.15;100.00;100685.31;5032460;28;20059;-70
2023/02/21 04:52:28;;;;;;;27.33;16.03;;;;;;;2.09;100.00;100688.28;5047723;28;20044;-69
2023/02/21 04:54:54;;;;;;;25.07;14.70;;;;;;;2.06;100.00;100682.97;5050515;28;20475;-69
2023/02/21 04:57:19;;;;;;;32.73;16.77;;;;;;;2.02;100.00;100679.31;5050844;28;20364;-70
2023/02/21 04:59:45;;;;;;;30.23;18.17;;;;;;;2.06;100.00;100678.75;5050637;28;20021;-71
2023/02/21 05:02:10;;;;;;;26.13;15.97;;;;;;;1.92;100.00;100670.09;5050535;28;20163;-68
2023/02/21 05:04:36;;;;;;;26.03;15.10;;;;;;;2.03;100.00;100675.09;5049238;28;20033;-68
2023/02/21 05:07:02;;;;;;;26.60;16.17;;;;;;;1.96;100.00;100657.59;5050879;28;20036;-71
2023/02/21 05:09:27;;;;;;;27.03;14.47;;;;;;;2.06;100.00;100671.13;5050523;28;20063;-69
2023/02/21 05:11:53;;;;;;;22.90;14.30;;;;;;;2.09;100.00;100663.72;5048396;28;20053;-68
2023/02/21 05:14:19;;;;;;;23.13;14.13;;;;;;;2.14;100.00;100676.78;5049893;28;20068;-69
2023/02/21 05:16:45;;;;;;;24.90;14.30;;;;;;;2.16;100.00;100666.72;5050319;28;20400;-71
2023/02/21 05:19:10;;;;;;;23.53;14.53;;;;;;;2.10;100.00;100657.84;5037330;28;20044;-69
2023/02/21 05:21:37;;;;;;;25.33;15.97;;;;;;;2.16;100.00;100679.47;5030328;28;20026;-68
2023/02/21 05:24:06;;;;;;;30.83;17.23;;;;;;;1.89;100.00;100646.94;5033903;28;20064;-72
2023/02/21 05:26:37;;;;;;;30.60;16.33;;;;;;;2.09;100.00;100673.91;5050328;28;20112;-72
2023/02/21 05:29:04;;;;;;;26.27;16.63;;;;;;;2.09;100.00;100671.38;5034075;28;20387;-68
2023/02/21 05:31:29;;;;;;;30.53;16.50;;;;;;;2.17;100.00;100678.66;5038114;28;20028;-72
2023/02/21 05:33:56;;;;;;;26.70;15.27;;;;;;;2.21;100.00;100678.13;5030329;28;20061;-68
2023/02/21 05:36:24;;;;;;;26.43;15.97;;;;;;;1.98;100.00;100618.75;5030271;28;20038;-68
2023/02/21 05:38:52;;;;;;;24.80;15.57;;;;;;;2.35;100.00;100657.09;5030152;28;20029;-69
2023/02/21 05:41:18;;;;;;;23.50;15.17;;;;;;;2.45;100.00;100650.13;5030229;28;20476;-68
2023/02/21 05:43:44;;;;;;;25.20;15.67;;;;;;;2.51;100.00;100643.81;5030313;28;20075;-70
2023/02/21 05:46:26;;;;;;;25.37;15.83;;;;;;;2.34;100.00;100619.63;5011435;28;20128;-71
2023/02/21 05:48:52;;;;;;;26.93;15.47;;;;;;;2.63;100.00;100655.66;5030310;28;20037;-67
2023/02/21 05:51:19;;;;;;;26.23;15.23;;;;;;;2.67;100.00;100652.56;5030226;28;20399;-68
2023/02/21 05:53:45;;;;;;;24.93;15.73;;;;;;;2.82;100.00;100668.94;5030422;28;20052;-67
2023/02/21 05:56:11;;;;;;;30.10;15.93;;;;;;;2.90;100.00;100672.03;5030135;28;20391;-71
2023/02/21 05:58:37;;;;;;;27.20;16.80;;;;;;;2.96;100.00;100677.56;5030282;28;20030;-69
2023/02/21 06:01:05;;;;;;;25.20;15.43;;;;;;;3.02;100.00;100678.00;5030357;28;20037;-68
2023/02/21 06:03:30;;;;;;;25.50;16.13;;;;;;;2.87;100.00;100647.19;5030058;28;20447;-70
2023/02/21 06:05:56;;;;;;;28.57;16.30;;;;;;;3.08;100.00;100662.25;5030263;28;20044;-67
2023/02/21 06:08:22;;;;;;;24.87;15.50;;;;;;;2.62;100.00;100579.94;5029792;28;20030;-68
2023/02/21 06:10:50;;;;;;;26.80;17.00;;;;;;;3.11;100.00;100662.44;5030218;28;20029;-68
2023/02/21 06:13:15;;;;;;;24.40;15.00;;;;;;;2.67;100.00;100583.75;5027049;28;20751;-72
2023/02/21 06:15:41;;;;;;;24.07;15.50;;;;;;;3.23;100.00;100676.06;5032282;28;20072;-68
2023/02/21 06:18:06;;;;;;;26.47;15.50;;;;;;;3.33;100.00;100672.50;5031180;28;20068;-70
2023/02/21 06:20:32;;;;;;;26.97;16.20;;;;;;;3.29;100.00;100659.41;5033717;28;20029;-70
2023/02/21 06:22:57;;;;;;;28.07;17.07;;;;;;;3.33;100.00;100674.16;5033799;28;20412;-69
2023/02/21 06:25:23;;;;;;;27.73;17.07;;;;;;;3.32;100.00;100680.03;5033635;28;20040;-68
2023/02/21 06:27:48;;;;;;;31.33;16.73;;;;;;;2.99;100.00;100615.69;5033547;28;20554;-68
2023/02/21 06:30:14;;;;;;;26.47;16.67;;;;;;;3.34;100.00;100681.91;5033470;28;20029;-68
2023/02/21 06:32:41;;;;;;;28.37;16.40;;;;;;;3.34;100.00;100671.72;5033382;28;20057;-71
2023/02/21 06:35:06;;;;;;;28.93;16.97;;;;;;;3.48;100.00;100675.22;5032963;28;20045;-68
2023/02/21 06:37:32;;;;;;;27.27;16.23;;;;;;;3.58;100.00;100673.28;5032847;28;20419;-70
2023/02/21 06:39:57;;;;;;;27.57;16.10;;;;;;;3.64;100.00;100681.34;5033103;28;20033;-69
2023/02/21 06:42:23;;;;;;;24.38;15.98;;;;;;;3.52;100.00;100641.44;5033426;28;20040;-70
2023/02/21 06:44:49;;;;;;;24.10;15.90;;;;;;;3.87;100.00;100691.44;5033042;28;20103;-68
2023/02/21 06:47:15;;;;;;;22.48;14.75;;;;;;;3.90;100.00;100675.47;5033182;28;20106;-70
2023/02/21 06:49:41;;;;;;;22.95;13.95;;;;;;;3.99;100.00;100677.75;5033228;28;20026;-68
2023/02/21 06:52:08;;;;;;;21.50;14.75;;;;;;;4.04;100.00;100679.81;5033093;28;20404;-69
2023/02/21 06:54:33;;;;;;;24.33;14.40;;;;;;;4.18;100.00;100688.41;5033012;28;20107;-69
2023/02/21 06:57:00;;;;;;;23.33;14.60;;;;;;;4.23;100.00;100683.59;5032909;28;20101;-69
2023/02/21 06:59:27;;;;;;;25.95;14.63;;;;;;;4.28;100.00;100678.78;5032739;28;20121;-68
2023/02/21 07:01:53;;;;;;;32.42;16.02;;;;;;;4.30;100.00;100670.44;5032767;28;20399;-69
2023/02/21 07:04:19;;;;;;;20.42;13.02;;;;;;;4.28;100.00;100653.25;5033096;28;20022;-69
2023/02/21 07:06:44;;;;;;;21.58;13.32;;;;;;;4.46;100.00;100684.22;5032692;28;20029;-70
2023/02/21 07:09:10;;;;;;;19.58;12.13;;;;;;;4.56;100.00;100684.03;5032320;28;20492;-73
2023/02/21 07:11:35;;;;;;;19.45;11.75;;;;;;;4.62;100.00;100675.84;5032555;28;20051;-70
2023/02/21 07:14:01;;;;;;;19.60;12.20;;;;;;;4.75;100.00;100683.53;5032781;28;20021;-70
2023/02/21 07:16:27;;;;;;;14.70;10.25;;;;;;;4.84;100.00;100681.53;5032659;28;20095;-69
2023/02/21 07:18:52;;;;;;;17.08;9.82;;;;;;;4.88;100.00;100674.09;5032594;28;20025;-73
2023/02/21 07:21:20;;;;;;;18.88;10.35;;;;;;;4.99;99.10;100675.63;5032507;28;20077;-69
2023/02/21 07:23:46;;;;;;;17.05;10.02;;;;;;;5.15;97.70;100688.59;5032265;28;20029;-72
2023/02/21 07:26:13;;;;;;;14.80;9.43;;;;;;;5.24;96.36;100684.84;5031160;28;20071;-69
2023/02/21 07:28:39;;;;;;;16.42;10.30;;;;;;;5.31;96.35;100685.31;5032210;28;20025;-72
2023/02/21 07:31:04;;;;;;;17.63;11.45;;;;;;;5.39;96.19;100678.09;5032564;28;20091;-70
2023/02/21 07:33:30;;;;;;;16.48;10.57;;;;;;;5.52;95.48;100677.19;5032076;28;20025;-70
2023/02/21 07:35:55;;;;;;;16.73;10.73;;;;;;;5.67;94.23;100670.41;5032375;28;20061;-71
2023/02/21 07:38:28;;;;;;;17.48;11.10;;;;;;;5.80;93.95;100663.47;5031881;28;20037;-69
2023/02/21 07:40:58;;;;;;;16.65;10.00;;;;;;;6.01;93.23;100663.88;5032264;28;20025;-73
2023/02/21 07:43:25;;;;;;;15.93;10.07;;;;;;;6.14;92.55;100655.22;5032219;28;20060;-71
2023/02/21 07:45:51;;;;;;;20.95;11.13;;;;;;;6.33;89.84;100659.72;5032420;28;20440;-69
2023/02/21 07:48:16;;;;;;;15.18;9.60;;;;;;;6.42;89.51;100657.66;5031757;28;20515;-72
2023/02/21 07:50:43;;;;;;;16.90;10.82;;;;;;;6.50;89.84;100652.97;5032121;28;20034;-72
2023/02/21 07:53:09;;;;;;;13.50;9.23;;;;;;;6.50;88.57;100629.00;5031961;28;20057;-69
2023/02/21 07:55:35;;;;;;;12.20;8.65;;;;;;;6.56;88.43;100602.00;5031666;28;20037;-70
2023/02/21 07:58:00;;;;;;;14.38;8.55;;;;;;;6.80;88.21;100630.72;5049228;28;20146;-69
2023/02/21 08:00:26;;;;;;;13.65;8.35;;;;;;;7.05;87.44;100638.84;5051789;28;20029;-68
2023/02/21 08:02:52;;;;;;;12.38;7.90;;;;;;;7.00;86.27;100602.66;5051334;28;20119;-68
2023/02/21 08:05:18;;;;;;;11.15;6.95;;;;;;;7.32;85.11;100629.16;5051582;28;20064;-71
2023/02/21 08:07:44;;;;;;;9.98;6.68;;;;;;;7.48;85.11;100627.38;5051768;28;20074;-72
2023/02/21 08:10:11;;;;;;;14.68;6.55;;;;;;;7.63;82.73;100617.00;5051459;28;20025;-68
2023/02/21 08:12:36;;;;;;;9.68;6.20;;;;;;;7.73;81.92;100616.69;5051571;28;20021;-70
2023/02/21 08:15:03;;;;;;;10.57;6.60;;;;;;;7.99;80.77;100620.56;5051376;28;20819;-68
2023/02/21 08:17:29;;;;;;;62.33;42.83;;;;;;;7.99;80.66;100583.69;5051327;28;20039;-69
2023/02/21 08:19:54;;;;;;;15.50;8.30;;;;;;;8.38;78.70;100618.19;5033472;28;20025;-69
2023/02/21 08:22:20;;;;;;;8.02;4.88;;;;;;;8.64;70.71;100620.28;5051214;28;20387;-69
2023/02/21 08:24:49;;;;;;;10.48;4.20;;;;;;;8.81;66.29;100583.34;5051228;28;20036;-70
2023/02/21 08:27:14;;;;;;;7.37;4.00;;;;;;;9.36;64.57;100622.69;5051287;28;20029;-72
2023/02/21 08:29:40;;;;;;;8.95;4.40;;;;;;;9.51;64.14;100619.91;5051083;28;20271;-70
2023/02/21 08:32:05;;;;;;;5.45;2.70;;;;;;;9.65;62.23;100605.03;5051135;28;20025;-69
2023/02/21 08:34:31;;;;;;;9.57;3.10;;;;;;;9.97;61.92;100613.22;5051103;28;20518;-69
2023/02/21 08:36:56;;;;;;;5.75;3.55;;;;;;;10.14;61.53;100604.50;5051019;28;20045;-69
2023/02/21 08:39:22;;;;;;;8.55;4.00;;;;;;;10.39;60.66;100590.03;5050500;28;20491;-70
2023/02/21 08:41:48;;;;;;;9.90;2.90;;;;;;;10.40;59.08;100539.31;5051069;28;20114;-71
2023/02/21 08:44:15;;;;;;;6.22;2.65;;;;;;;10.89;59.02;100574.75;5050817;28;20394;-69
2023/02/21 08:46:42;;;;;;;7.82;2.80;;;;;;;11.13;58.82;100566.13;5050850;28;20035;-70
2023/02/21 08:49:08;;;;;;;11.07;3.45;;;;;;;11.58;56.92;100558.22;5050806;28;20037;-72
2023/02/21 08:51:34;;;;;;;9.60;2.53;;;;;;;11.71;55.77;100550.88;5050710;28;20043;-70
2023/02/21 08:53:59;;;;;;;4.63;1.42;;;;;;;11.97;55.54;100544.00;5050819;28;20033;-72
2023/02/21 08:56:26;;;;;;;8.10;5.18;;;;;;;12.22;56.31;100539.63;5050718;28;20506;-69
2023/02/21 08:58:53;;;;;;;6.80;2.70;;;;;;;12.59;55.14;100543.34;5051026;28;20041;-72
2023/02/21 09:01:37;;;;;;;6.60;2.00;;;;;;;12.85;53.61;100538.91;5008248;28;20081;-71
2023/02/21 09:04:03;;;;;;;8.82;3.22;;;;;;;13.05;53.55;100513.56;5008229;28;20046;-69
2023/02/21 09:06:29;;;;;;;1.80;1.25;;;;;;;13.46;51.98;100538.00;5008613;28;20042;-69
2023/02/21 09:08:55;;;;;;;3.33;1.77;;;;;;;13.62;51.29;100541.88;5008400;28;20057;-69
2023/02/21 09:11:20;;;;;;;7.28;2.22;;;;;;;13.78;51.20;100533.63;5008413;28;20040;-73
2023/02/21 09:13:46;;;;;;;5.30;2.45;;;;;;;13.87;50.50;100509.66;5008385;28;20117;-69
2023/02/21 09:16:11;;;;;;;8.90;3.47;;;;;;;14.18;50.64;100511.22;5008169;28;20108;-72
2023/02/21 09:18:37;;;;;;;5.57;2.08;;;;;;;14.43;49.34;100504.00;5008363;28;20593;-73
2023/02/21 09:21:02;;;;;;;4.10;1.42;;;;;;;14.69;48.55;100499.38;5008646;28;20046;-72
2023/02/21 09:23:29;;;;;;;6.40;2.45;;;;;;;14.61;47.96;100466.25;5002346;28;20400;-72
2023/02/21 09:25:55;;;;;;;6.32;1.85;;;;;;;15.11;47.70;100491.50;5008275;28;20072;-71
2023/02/21 09:28:21;;;;;;;5.40;2.08;;;;;;;15.10;45.87;100489.75;5008015;28;20129;-73
2023/02/21 09:30:48;;;;;;;6.60;1.73;;;;;;;15.02;46.40;100485.28;5008226;28;20049;-73
2023/02/21 09:33:14;;;;;;;13.45;1.90;;;;;;;15.18;45.68;100485.59;5039852;28;20037;-72
2023/02/21 09:35:40;;;;;;;6.47;1.90;;;;;;;15.31;46.01;100486.66;5050235;28;20053;-70
2023/02/21 09:38:08;;;;;;;7.38;2.20;;;;;;;15.46;45.80;100478.25;5050359;28;20033;-70
2023/02/21 09:40:43;;;;;;;4.57;1.92;;;;;;;15.68;44.93;100471.69;5050519;28;20037;-69
2023/02/21 09:43:22;;;;;;;6.75;2.03;;;;;;;15.72;44.63;100477.81;5050160;28;20057;-70
2023/02/21 09:45:52;;;;;;;11.83;2.10;;;;;;;15.76;44.02;100459.66;5050262;28;20028;-72
2023/02/21 09:48:20;;;;;;;6.40;2.03;;;;;;;16.05;44.36;100463.59;5050454;28;20025;-70
2023/02/21 09:50:48;;;;;;;2.95;1.50;;;;;;;16.12;43.12;100468.03;5052885;28;20032;-70
2023/02/21 09:53:20;;;;;;;4.13;1.52;;;;;;;16.15;43.41;100444.66;5054386;28;20029;-69
2023/02/21 09:55:49;;;;;;;2.22;1.33;;;;;;;16.58;43.10;100457.34;5054389;28;20082;-70
2023/02/21 09:58:18;;;;;;;2.20;1.38;;;;;;;16.64;41.89;100445.25;5036358;28;20491;-70
2023/02/21 10:00:44;;;;;;;3.25;1.92;;;;;;;16.74;41.83;100446.22;5053709;28;20082;-70
2023/02/21 10:03:30;;;;;;;6.85;2.00;;;;;;;16.76;42.27;100436.69;5038774;28;20400;-72
2023/02/21 10:05:58;;;;;;;4.88;2.00;;;;;;;17.13;40.90;100442.34;5051619;28;20029;-69
2023/02/21 10:08:52;;;;;;;4.43;2.38;;;;;;;16.90;40.78;100400.34;5053439;28;20047;-71
2023/02/21 10:11:20;;;;;;;6.20;2.28;;;;;;;16.98;40.05;100392.63;5052622;28;20021;-70
2023/02/21 10:13:55;;;;;;;4.90;2.30;;;;;;;16.94;40.69;100383.03;5052928;28;20025;-71
2023/02/21 10:16:39;;;;;;;4.13;2.25;;;;;;;17.37;40.81;100403.38;5052365;28;20060;-72
2023/02/21 10:19:18;;;;;;;5.13;3.33;;;;;;;17.40;40.52;100396.47;5035152;28;20025;-68
2023/02/21 10:21:46;;;;;;;4.95;2.15;;;;;;;17.55;41.77;100400.06;5035263;28;20021;-70
2023/02/21 10:24:14;;;;;;;4.88;2.40;;;;;;;17.50;40.59;100386.09;5053266;28;20036;-71
2023/02/21 10:26:47;;;;;;;5.47;2.85;;;;;;;17.46;40.19;100343.44;5053231;28;20472;-71
2023/02/21 10:29:24;;;;;;;7.65;4.30;;;;;;;17.81;39.68;100381.94;5052676;28;20395;-72
2023/02/21 10:31:56;;;;;;;11.18;4.30;;;;;;;17.90;40.04;100371.53;5052394;28;20035;-72
2023/02/21 10:34:26;;;;;;;6.18;3.80;;;;;;;18.01;39.32;100355.97;5052271;28;20049;-74
2023/02/21 10:36:52;;;;;;;;;;;;;;;17.92;39.78;100359.38;5001408;28;20056;-75
2023/02/21 10:39:20;;;;;;;2.67;1.85;;;;;;;18.16;39.86;100355.16;5052290;28;19920;-72
2023/02/21 10:41:49;;;;;;;3.37;2.13;;;;;;;18.14;38.82;100348.19;5052781;28;20029;-73
2023/02/21 10:44:24;;;;;;;3.65;2.20;;;;;;;18.11;39.69;100349.91;5052389;28;20060;-71
2023/02/21 10:47:13;;;;;;;7.47;2.75;;;;;;;18.16;39.13;100346.44;5052865;28;20133;-70
2023/02/21 10:49:47;;;;;;;4.97;2.80;;;;;;;18.17;38.95;100345.56;5052363;28;20037;-71
2023/02/21 10:52:15;;;;;;;5.85;2.22;;;;;;;18.30;39.01;100333.44;5052239;28;20037;-74
2023/02/21 10:54:41;;;;;;;4.25;2.15;;;;;;;18.55;39.57;100297.75;5052429;28;20381;-68
2023/02/21 10:57:10;;;;;;;8.90;2.20;;;;;;;18.61;37.94;100271.63;5051960;28;20040;-71
2023/02/21 10:59:41;;;;;;;4.10;1.58;;;;;;;18.70;37.16;100323.91;5052498;28;20021;-70
2023/02/21 11:02:31;;;;;;;3.05;1.77;;;;;;;18.59;37.05;100315.19;5030800;28;20037;-72
2023/02/21 11:05:12;;;;;;;4.22;2.17;;;;;;;18.59;37.33;100316.06;5048810;28;20024;-70
2023/02/21 11:07:37;;;;;;;4.05;2.17;;;;;;;18.35;37.34;100321.25;5052067;28;20044;-72
2023/02/21 11:10:27;;;;;;;3.60;1.70;;;;;;;18.08;36.20;100309.81;5051583;28;20029;-72
2023/02/21 11:13:05;;;;;;;6.50;1.77;;;;;;;17.96;36.29;100271.50;5052098;28;20029;-72
2023/02/21 11:15:31;;;;;;;3.05;1.30;;;;;;;18.26;35.73;100296.81;5051783;28;20024;-74
2023/02/21 11:18:23;;;;;;;2.03;1.40;;;;;;;18.27;35.24;100288.13;5052133;28;20112;-69
2023/02/21 11:20:51;;;;;;;4.03;1.50;;;;;;;18.39;35.46;100289.91;4970821;28;20133;-69
2023/02/21 11:23:29;;;;;;;4.50;1.67;;;;;;;18.42;35.47;100274.22;4970333;28;20045;-69
2023/02/21 11:26:10;;;;;;;2.03;1.40;;;;;;;18.48;35.12;100270.75;4968040;28;20054;-71
2023/02/21 11:28:42;;;;;;;2.72;1.35;;;;;;;18.64;35.08;100263.78;4970948;28;20038;-72
2023/02/21 11:31:26;;;;;;;4.03;1.75;;;;;;;18.79;34.42;100259.41;4970708;28;20434;-72
2023/02/21 11:33:57;;;;;;;2.50;1.70;;;;;;;18.98;34.34;100249.84;4970538;28;20077;-71
2023/02/21 11:36:29;;;;;;;2.85;1.70;;;;;;;19.40;35.10;100253.25;4970458;28;20034;-69
2023/02/21 11:39:03;;;;;;;5.47;1.90;;;;;;;19.29;33.34;100255.91;4970500;28;20047;-69
2023/02/21 11:41:48;;;;;;;4.60;1.42;;;;;;;19.46;33.13;100248.00;4969616;28;20054;-69
2023/02/21 11:44:37;;;;;;;2.17;1.40;;;;;;;19.62;32.37;100250.56;4969201;28;20122;-75
2023/02/21 11:47:41;;;;;;;2.33;1.40;;;;;;;19.63;31.94;100245.31;4969490;28;20561;-74
2023/02/21 11:50:13;;;;;;;2.28;1.20;;;;;;;19.87;31.38;100228.63;4912402;29;20376;-72
2023/02/21 11:52:39;;;;;;;2.33;1.48;;;;;;;19.87;31.10;100226.03;4912487;29;20521;-76
2023/02/21 11:55:14;;;;;;;4.13;1.10;;;;;;;19.83;29.22;100232.16;4912667;29;20068;-72
2023/02/21 11:57:48;;;;;;;2.35;1.00;;;;;;;19.61;28.62;100185.97;4915007;29;20047;-71
2023/02/21 12:00:32;;;;;;;3.30;1.08;;;;;;;19.87;30.22;100212.06;4945420;29;20038;-73
2023/02/21 12:03:17;;;;;;;3.67;1.35;;;;;;;20.09;29.62;100215.44;4950654;29;20038;-74
2023/02/21 12:06:07;;;;;;;3.58;1.30;;;;;;;20.00;28.98;100208.50;4950162;29;20038;-72
2023/02/21 12:08:50;;;;;;;1.30;1.00;;;;;;;19.98;29.13;100209.38;4933319;29;20035;-73
2023/02/21 12:11:21;;;;;;;3.30;1.20;;;;;;;20.14;29.78;100200.53;4949822;29;20090;-72
2023/02/21 12:14:17;;;;;;;2.08;1.20;;;;;;;20.11;29.03;100195.34;4950085;28;20043;-72
2023/02/21 12:16:53;;;;;;;2.40;1.30;;;;;;;20.07;29.88;100190.13;4950042;29;20102;-73
2023/02/21 12:19:39;;;;;;;2.80;1.40;;;;;;;20.20;28.45;100176.91;4948779;29;20058;-74
2023/02/21 12:22:38;;;;;;;4.40;1.50;;;;;;;20.23;28.17;100175.16;5032308;28;20451;-74
2023/02/21 12:25:09;;;;;;;3.67;1.48;;;;;;;20.34;30.26;100179.41;5050666;28;20029;-76
2023/02/21 12:27:46;;;;;;;2.55;1.20;;;;;;;20.23;27.59;100167.28;5050418;28;20044;-70
2023/02/21 12:30:25;;;;;;;3.80;1.15;;;;;;;20.13;28.00;100163.88;5050299;28;20029;-75
2023/02/21 12:33:08;;;;;;;1.27;1.00;;;;;;;19.96;27.80;100151.75;5049352;28;20514;-75
2023/02/21 12:35:37;;;;;;;1.58;1.00;;;;;;;20.14;28.97;100168.22;5049122;28;20053;-74
2023/02/21 12:38:17;;;;;;;1.95;1.10;;;;;;;20.13;28.39;100159.50;5047060;28;20040;-72
2023/02/21 12:41:14;;;;;;;3.88;1.73;;;;;;;20.25;28.38;100160.28;5049922;28;20048;-73
2023/02/21 12:43:52;;;;;;;1.85;1.10;;;;;;;19.91;27.95;100135.19;5041985;28;20403;-74
2023/02/21 12:46:30;;;;;;;3.50;1.20;;;;;;;20.19;28.33;100158.59;5049479;28;20100;-70
2023/02/21 12:49:08;;;;;;;5.35;1.10;;;;;;;20.14;27.37;100144.66;5049915;28;20031;-74
2023/02/21 12:51:45;;;;;;;4.10;1.45;;;;;;;20.35;27.71;100160.19;5048788;28;20107;-74
2023/02/21 12:54:18;;;;;;;2.75;1.20;;;;;;;20.29;27.68;100162.88;4981753;28;20044;-74
2023/02/21 12:56:58;;;;;;;1.70;1.10;;;;;;;20.19;27.28;100151.56;5049363;28;20025;-72
2023/02/21 12:59:29;;;;;;;2.80;1.52;;;;;;;20.25;27.79;100160.28;5012739;28;20036;-73
2023/02/21 13:02:00;;;;;;;3.47;1.25;;;;;;;19.94;27.52;100131.66;5049756;28;20025;-73
2023/02/21 13:04:46;;;;;;;2.78;1.40;;;;;;;20.14;28.06;100150.75;5049588;28;20028;-73
2023/02/21 13:07:24;;;;;;;5.18;1.38;;;;;;;20.23;27.70;100148.94;5049224;28;20103;-73
2023/02/21 13:09:56;;;;;;;3.42;1.35;;;;;;;20.16;28.65;100150.72;5049853;28;20021;-73
2023/02/21 13:12:39;;;;;;;4.13;1.33;;;;;;;20.09;28.07;100126.34;5049775;28;20431;-70
2023/02/21 13:15:25;;;;;;;1.75;1.08;;;;;;;20.11;27.75;100131.56;5050171;28;20036;-72
2023/02/21 13:18:00;;;;;;;2.60;1.55;;;;;;;20.15;27.37;100134.16;5049911;28;20418;-70
2023/02/21 13:20:32;;;;;;;3.88;1.30;;;;;;;20.13;26.96;100141.13;5049760;28;20029;-77
2023/02/21 13:23:38;;;;;;;2.70;1.35;;;;;;;20.16;27.21;100141.13;5049812;28;20033;-75
2023/02/21 13:26:29;;;;;;;2.92;1.30;;;;;;;20.15;27.36;100142.00;5049466;28;20033;-71
2023/02/21 13:28:56;;;;;;;3.25;1.30;;;;;;;20.02;27.06;100098.44;5050244;28;20124;-71
2023/02/21 13:31:36;;;;;;;2.00;1.27;;;;;;;20.22;27.31;100136.72;5049409;28;20484;-72
2023/02/21 13:34:06;;;;;;;5.45;1.50;;;;;;;20.05;27.27;100101.03;5049841;28;20052;-74
2023/02/21 13:36:41;;;;;;;5.32;1.65;;;;;;;20.34;27.76;100124.38;5049541;28;20029;-72
2023/02/21 13:39:21;;;;;;;3.47;1.60;;;;;;;20.33;27.30;100129.63;5049779;28;20422;-74
2023/02/21 13:42:04;;;;;;;2.58;1.60;;;;;;;20.29;27.22;100127.94;5036720;28;20540;-74
2023/02/21 13:44:34;;;;;;;4.15;1.55;;;;;;;20.00;26.85;100077.50;5050027;28;20021;-71
2023/02/21 13:47:12;;;;;;;4.68;1.90;;;;;;;20.25;27.02;100108.72;5049553;28;20039;-74
2023/02/21 13:49:53;;;;;;;3.05;1.80;;;;;;;20.23;26.81;100110.50;5049846;28;20032;-75
2023/02/21 13:52:18;;;;;;;5.97;1.83;;;;;;;20.24;27.22;100112.22;5049060;28;20033;-71
2023/02/21 13:55:12;;;;;;;3.35;1.60;;;;;;;20.29;27.21;100106.97;5049781;28;20032;-74